Weather reports worldwide

Advertisment
Siracusa, Italy (16464): temperature & dewpoint: 21.04.2017 05:00:00 - 27.04.2017 05:00:00 (CEST)Siracusa, Italy (16464): wind speed: 21.04.2017 05:00:00 - 27.04.2017 05:00:00 (CEST)Siracusa, Italy (16464): wind direction: 21.04.2017 05:00:00 - 27.04.2017 05:00:00 (CEST)Siracusa, Italy (16464): reduced air pressure: 21.04.2017 05:00:00 - 27.04.2017 05:00:00 (CEST)Siracusa, Italy (16464): precipitation: 21.04.2017 05:00:00 - 27.04.2017 05:00:00 (CEST)
Date & Time tt [°C] td [°C] ff [km/h] ff [kn] dd ppp [hPa] rr [mm]
27.04.2017 05:00:00 - - - - - - -
27.04.2017 04:00:00 12,3 8,9 4 2 NW - -
27.04.2017 03:00:00 12,8 8,6 4 2 NW 1016,9 -
27.04.2017 02:00:00 16,1 14,0 4 2 N 1017,7 0,0
27.04.2017 01:00:00 14,3 10,9 2 1 NW 1018,2 -
27.04.2017 00:00:00 14,8 11,2 2 1 NW 1018,2 -
26.04.2017 23:00:00 16,0 12,3 0 0 N 1018,3 -
26.04.2017 22:00:00 17,3 14,1 0 0 N 1018,4 -
26.04.2017 21:00:00 17,5 14,1 0 0 N 1017,7 -
26.04.2017 20:00:00 17,8 14,0 4 2 E 1017,1 0,0
26.04.2017 19:00:00 18,5 14,7 4 2 E 1017,0 -
26.04.2017 18:00:00 19,0 15,0 8 4 NE 1016,9 -
26.04.2017 17:00:00 19,6 15,2 8 4 ESE 1017,1 -
26.04.2017 16:00:00 19,0 14,6 9 5 E 1017,1 -
26.04.2017 15:00:00 19,6 14,8 11 6 ESE 1017,3 -
26.04.2017 14:00:00 19,4 14,8 9 5 E 1017,7 0,0
26.04.2017 13:00:00 19,4 15,0 11 6 E 1017,7 -
26.04.2017 12:00:00 18,7 14,9 9 5 E 1018,1 -
26.04.2017 11:00:00 18,3 14,3 11 6 E 1018,2 -
26.04.2017 10:00:00 18,4 14,6 9 5 E 1017,7 -
26.04.2017 09:00:00 18,0 15,2 5 3 E 1017,6 -
26.04.2017 08:00:00 16,0 12,9 0 0 N 1017,7 0,0
26.04.2017 07:00:00 16,6 14,0 4 2 ESE 1017,2 -
26.04.2017 06:00:00 16,5 13,7 5 3 ENE 1016,8 -
26.04.2017 05:00:00 16,7 13,7 5 3 ENE 1017,0 -
26.04.2017 04:00:00 16,7 13,5 5 3 E 1017,2 -
26.04.2017 03:00:00 16,7 13,5 4 2 ENE 1017,3 -
26.04.2017 02:00:00 16,8 13,3 4 2 ESE 1017,6 0,0
26.04.2017 01:00:00 16,7 13,2 5 3 E 1018,1 -
26.04.2017 00:00:00 16,5 12,6 4 2 N 1018,4 -
25.04.2017 23:00:00 16,5 12,2 4 2 ESE 1018,6 -
25.04.2017 22:00:00 16,5 11,6 4 2 ESE 1018,5 -
25.04.2017 21:00:00 16,7 11,6 5 3 ESE 1018,1 -
25.04.2017 20:00:00 16,9 11,3 5 3 ESE 1017,8 0,0
25.04.2017 19:00:00 17,7 11,7 8 4 SE 1017,9 -
25.04.2017 18:00:00 17,8 12,4 9 5 SE 1018,2 -
25.04.2017 17:00:00 17,5 11,7 9 5 ESE 1018,5 -
25.04.2017 16:00:00 17,7 11,2 9 5 ESE 1019,0 -
25.04.2017 15:00:00 17,7 11,0 15 8 SE 1019,7 -
25.04.2017 14:00:00 18,1 10,7 15 8 SE 1019,7 0,0
25.04.2017 13:00:00 19,0 10,8 13 7 WSW 1019,9 -
25.04.2017 12:00:00 18,3 10,6 13 7 SE 1020,2 -
25.04.2017 11:00:00 18,2 10,7 11 6 SSE 1020,2 -
25.04.2017 10:00:00 17,5 11,3 11 6 SSE 1020,3 -
25.04.2017 09:00:00 15,4 11,9 2 1 SE 1020,2 -
25.04.2017 08:00:00 12,9 9,9 2 1 NNW 1019,8 0,0
25.04.2017 07:00:00 11,0 8,0 2 1 N 1019,5 -
25.04.2017 06:00:00 10,0 6,7 0 0 N 1019,3 -
25.04.2017 05:00:00 9,6 6,1 4 2 NW 1019,3 -
25.04.2017 04:00:00 9,7 6,0 4 2 NW 1019,4 -
25.04.2017 03:00:00 10,3 6,4 5 3 WNW 1019,7 -
25.04.2017 02:00:00 10,9 7,2 5 3 WNW 1020,3 0,0
25.04.2017 01:00:00 11,5 7,4 5 3 WNW 1020,7 -
25.04.2017 00:00:00 12,1 7,6 5 3 WNW 1021,0 -
24.04.2017 23:00:00 13,2 8,4 2 1 W 1021,3 -
24.04.2017 22:00:00 14,8 10,0 8 4 SW 1021,3 -
24.04.2017 21:00:00 15,9 10,8 15 8 SSW 1020,8 -
24.04.2017 20:00:00 16,4 10,9 18 10 S 1020,3 0,0
24.04.2017 19:00:00 17,0 11,0 22 12 S 1020,2 -
24.04.2017 18:00:00 17,4 10,9 28 15 S 1020,4 -
24.04.2017 17:00:00 17,6 10,9 28 15 S 1020,4 -
24.04.2017 16:00:00 17,7 10,8 29 16 S 1020,6 -
24.04.2017 15:00:00 17,8 11,1 29 16 S 1021,0 -
24.04.2017 14:00:00 17,8 10,8 34 18 S 1021,6 0,0
24.04.2017 13:00:00 18,1 10,9 28 15 S 1021,9 -
24.04.2017 12:00:00 17,6 10,2 26 14 S 1022,3 -
24.04.2017 11:00:00 17,1 10,6 22 12 S 1022,3 -
24.04.2017 10:00:00 16,5 10,1 9 5 S 1021,9 -
24.04.2017 09:00:00 14,6 11,3 4 2 SW 1021,8 -
24.04.2017 08:00:00 10,2 6,9 4 2 NW 1021,6 0,0
24.04.2017 07:00:00 8,6 4,4 4 2 NW 1021,1 -
24.04.2017 06:00:00 9,0 4,8 2 1 WNW 1020,8 -
24.04.2017 05:00:00 9,3 4,8 2 1 NW 1020,8 -
24.04.2017 04:00:00 9,5 5,0 4 2 WNW 1021,0 -
24.04.2017 03:00:00 10,0 5,5 4 2 NW 1021,1 -
24.04.2017 02:00:00 10,6 5,9 2 1 W 1021,4 0,0
24.04.2017 01:00:00 11,8 7,3 0 0 N 1021,7 -
24.04.2017 00:00:00 12,4 7,4 4 2 W 1021,9 -
23.04.2017 23:00:00 14,5 9,3 2 1 WNW 1021,8 -
23.04.2017 22:00:00 15,9 10,4 5 3 W 1021,9 -
23.04.2017 21:00:00 17,5 11,3 8 4 N 1020,8 -
23.04.2017 20:00:00 18,8 7,8 9 5 N 1020,1 0,0
23.04.2017 19:00:00 20,6 7,5 5 3 N 1019,7 -
23.04.2017 18:00:00 20,9 7,4 13 7 NNE 1019,6 -
23.04.2017 17:00:00 21,9 9,0 5 3 N 1019,2 -
23.04.2017 16:00:00 19,7 11,2 34 18 S 1019,6 -
23.04.2017 15:00:00 19,0 9,7 28 15 S 1020,9 -
23.04.2017 14:00:00 18,8 6,5 18 10 S 1021,6 0,0
23.04.2017 13:00:00 18,5 7,5 18 10 S 1022,0 -
23.04.2017 12:00:00 17,7 6,2 9 5 SSE 1022,2 -
23.04.2017 11:00:00 17,0 6,1 5 3 E 1022,1 -
23.04.2017 10:00:00 15,9 4,5 5 3 WSW 1022,1 -
23.04.2017 09:00:00 13,7 8,1 0 0 N 1022,0 -
23.04.2017 08:00:00 9,2 5,3 5 3 NW 1021,9 0,0
23.04.2017 07:00:00 6,5 1,9 4 2 NW 1021,4 -
23.04.2017 06:00:00 6,3 1,4 5 3 NW 1021,1 -
23.04.2017 05:00:00 6,8 1,6 4 2 WNW 1021,2 -
23.04.2017 04:00:00 7,8 2,4 5 3 WNW 1021,2 -
23.04.2017 03:00:00 7,7 1,7 5 3 WNW 1021,5 -
23.04.2017 02:00:00 8,6 2,3 2 1 WNW 1022,2 0,0
23.04.2017 01:00:00 9,4 3,1 2 1 NW 1022,4 -
23.04.2017 00:00:00 9,5 2,7 8 4 W 1022,5 -
22.04.2017 23:00:00 10,6 3,5 5 3 WNW 1022,8 -
22.04.2017 22:00:00 11,8 3,2 8 4 W 1022,8 -
22.04.2017 21:00:00 14,9 4,8 4 2 E 1022,2 -
22.04.2017 20:00:00 15,2 4,2 8 4 E 1021,8 0,0
22.04.2017 19:00:00 15,9 3,6 11 6 E 1021,7 -
22.04.2017 18:00:00 16,6 4,2 9 5 ESE 1021,4 -
22.04.2017 17:00:00 16,9 4,8 9 5 SE 1021,3 -
22.04.2017 16:00:00 17,0 5,5 15 8 SSE 1022,1 -
22.04.2017 15:00:00 16,7 3,3 15 8 S 1022,8 -
22.04.2017 14:00:00 16,5 2,4 11 6 SSE 1023,6 0,0
22.04.2017 13:00:00 15,6 1,2 9 5 E 1024,1 -
22.04.2017 12:00:00 15,3 0,2 11 6 E 1024,6 -
22.04.2017 11:00:00 14,7 0,8 13 7 N 1025,0 -
22.04.2017 10:00:00 14,4 0,2 9 5 NNW 1025,1 -
22.04.2017 09:00:00 12,8 5,9 4 2 W 1025,1 -
22.04.2017 08:00:00 9,0 4,9 0 0 N 1025,1 0,0
22.04.2017 07:00:00 7,1 2,7 5 3 W 1024,6 -
22.04.2017 06:00:00 7,4 3,2 8 4 WNW 1024,2 -
22.04.2017 05:00:00 7,1 2,7 5 3 WNW 1024,3 -
22.04.2017 04:00:00 7,7 3,9 5 3 NW 1024,6 -
22.04.2017 03:00:00 8,0 4,2 4 2 W 1024,9 -
22.04.2017 02:00:00 8,5 4,8 5 3 WNW 1025,3 0,0
22.04.2017 01:00:00 10,0 6,7 2 1 WNW 1025,7 -
22.04.2017 00:00:00 10,0 6,3 5 3 WNW 1025,9 -
21.04.2017 23:00:00 11,1 7,0 4 2 E 1025,9 -
21.04.2017 22:00:00 11,7 7,2 2 1 S 1026,1 -
21.04.2017 21:00:00 10,5 6,6 9 5 NW 1025,6 -
21.04.2017 20:00:00 10,8 7,1 11 6 WNW 1025,2 0,0
21.04.2017 19:00:00 11,4 6,5 5 3 WNW 1024,9 -
21.04.2017 18:00:00 13,9 3,3 11 6 ENE 1024,3 -
21.04.2017 17:00:00 14,4 3,4 9 5 ENE 1023,9 -
21.04.2017 16:00:00 15,3 4,3 11 6 E 1023,8 -
21.04.2017 15:00:00 15,4 4,9 13 7 E 1024,1 -
21.04.2017 14:00:00 14,9 4,8 13 7 E 1024,7 0,0
21.04.2017 13:00:00 14,1 5,4 15 8 E 1024,6 -
21.04.2017 12:00:00 14,4 5,9 16 9 ENE 1024,8 -
21.04.2017 11:00:00 14,9 4,2 11 6 NE 1024,4 -
21.04.2017 10:00:00 14,7 3,1 9 5 NNE 1024,2 -
21.04.2017 09:00:00 14,0 2,5 9 5 NNE 1024,0 -
21.04.2017 08:00:00 11,5 3,2 2 1 NW 1023,5 0,0
21.04.2017 07:00:00 11,8 1,0 8 4 NNW 1023,1 -
21.04.2017 06:00:00 12,5 1,1 9 5 N 1022,7 -
21.04.2017 05:00:00 13,1 0,4 8 4 NNE 1022,5 -

tt = temperature
td = dewpoint
ff = wind speed
dd = wind direction
ppp = reduced air pressure
rr = precipitation

Next stations